sensor_id;sensor_type;location;lat;lon;timestamp;temperature;humidity
23801;DHT22;12081;48.614;10.226;2024-02-23T00:01:45;7.30;99.90
23801;DHT22;12081;48.614;10.226;2024-02-23T00:04:29;7.30;99.90
23801;DHT22;12081;48.614;10.226;2024-02-23T00:07:13;7.20;99.90
23801;DHT22;12081;48.614;10.226;2024-02-23T00:09:57;7.20;99.90
23801;DHT22;12081;48.614;10.226;2024-02-23T00:12:41;7.20;99.90
23801;DHT22;12081;48.614;10.226;2024-02-23T00:15:28;9.60;99.90
23801;DHT22;12081;48.614;10.226;2024-02-23T00:18:13;7.10;99.90
23801;DHT22;12081;48.614;10.226;2024-02-23T00:20:58;7.00;99.90
23801;DHT22;12081;48.614;10.226;2024-02-23T00:23:42;7.00;99.90
23801;DHT22;12081;48.614;10.226;2024-02-23T00:26:26;6.60;99.90
23801;DHT22;12081;48.614;10.226;2024-02-23T00:29:12;6.20;99.90
23801;DHT22;12081;48.614;10.226;2024-02-23T00:31:56;5.60;99.90
23801;DHT22;12081;48.614;10.226;2024-02-23T00:34:40;6.20;99.90
23801;DHT22;12081;48.614;10.226;2024-02-23T00:37:24;4.90;99.90
23801;DHT22;12081;48.614;10.226;2024-02-23T00:40:08;4.60;99.90
23801;DHT22;12081;48.614;10.226;2024-02-23T00:42:53;4.40;99.90
23801;DHT22;12081;48.614;10.226;2024-02-23T00:45:38;4.30;99.90
23801;DHT22;12081;48.614;10.226;2024-02-23T00:48:22;4.30;99.90
23801;DHT22;12081;48.614;10.226;2024-02-23T00:51:06;4.90;99.90
23801;DHT22;12081;48.614;10.226;2024-02-23T00:53:51;4.30;99.90
23801;DHT22;12081;48.614;10.226;2024-02-23T00:56:35;4.20;99.90
23801;DHT22;12081;48.614;10.226;2024-02-23T00:59:19;4.20;99.90
23801;DHT22;12081;48.614;10.226;2024-02-23T01:02:05;4.30;99.90
23801;DHT22;12081;48.614;10.226;2024-02-23T01:04:49;4.30;99.90
23801;DHT22;12081;48.614;10.226;2024-02-23T01:07:33;4.30;99.90
23801;DHT22;12081;48.614;10.226;2024-02-23T01:10:17;4.30;99.90
23801;DHT22;12081;48.614;10.226;2024-02-23T01:13:02;4.30;99.90
23801;DHT22;12081;48.614;10.226;2024-02-23T01:15:46;4.20;99.90
23801;DHT22;12081;48.614;10.226;2024-02-23T01:18:30;4.20;99.90
23801;DHT22;12081;48.614;10.226;2024-02-23T01:21:14;4.10;99.90
23801;DHT22;12081;48.614;10.226;2024-02-23T01:23:58;4.10;99.90
23801;DHT22;12081;48.614;10.226;2024-02-23T01:26:44;4.00;99.90
23801;DHT22;12081;48.614;10.226;2024-02-23T01:29:28;4.00;99.90
23801;DHT22;12081;48.614;10.226;2024-02-23T01:32:12;3.90;99.90
23801;DHT22;12081;48.614;10.226;2024-02-23T01:34:56;3.90;99.90
23801;DHT22;12081;48.614;10.226;2024-02-23T01:37:40;3.90;99.90
23801;DHT22;12081;48.614;10.226;2024-02-23T01:40:24;6.80;99.90
23801;DHT22;12081;48.614;10.226;2024-02-23T01:43:08;3.90;99.90
23801;DHT22;12081;48.614;10.226;2024-02-23T01:45:53;3.90;99.90
23801;DHT22;12081;48.614;10.226;2024-02-23T01:48:38;3.90;99.90
23801;DHT22;12081;48.614;10.226;2024-02-23T01:51:22;3.90;99.90
23801;DHT22;12081;48.614;10.226;2024-02-23T01:54:07;3.90;99.90
23801;DHT22;12081;48.614;10.226;2024-02-23T01:56:52;3.90;99.90
23801;DHT22;12081;48.614;10.226;2024-02-23T01:59:38;4.00;99.90
23801;DHT22;12081;48.614;10.226;2024-02-23T02:02:22;4.00;99.90
23801;DHT22;12081;48.614;10.226;2024-02-23T02:05:07;4.00;99.90
23801;DHT22;12081;48.614;10.226;2024-02-23T02:07:51;4.00;99.90
23801;DHT22;12081;48.614;10.226;2024-02-23T02:10:38;4.00;99.90
23801;DHT22;12081;48.614;10.226;2024-02-23T02:13:22;4.00;99.90
23801;DHT22;12081;48.614;10.226;2024-02-23T02:16:06;3.90;99.90
23801;DHT22;12081;48.614;10.226;2024-02-23T02:18:51;4.00;99.90
23801;DHT22;12081;48.614;10.226;2024-02-23T02:21:35;4.00;99.90
23801;DHT22;12081;48.614;10.226;2024-02-23T02:24:20;3.90;99.90
23801;DHT22;12081;48.614;10.226;2024-02-23T02:27:05;5.80;99.90
23801;DHT22;12081;48.614;10.226;2024-02-23T02:29:50;3.90;99.90
23801;DHT22;12081;48.614;10.226;2024-02-23T02:32:35;4.00;99.90
23801;DHT22;12081;48.614;10.226;2024-02-23T02:35:20;4.00;99.90
23801;DHT22;12081;48.614;10.226;2024-02-23T02:38:04;4.00;99.90
23801;DHT22;12081;48.614;10.226;2024-02-23T02:40:48;4.00;99.90
23801;DHT22;12081;48.614;10.226;2024-02-23T02:43:32;4.00;99.90
23801;DHT22;12081;48.614;10.226;2024-02-23T02:46:16;4.00;99.90
23801;DHT22;12081;48.614;10.226;2024-02-23T03:27:28;3.60;99.90
23801;DHT22;12081;48.614;10.226;2024-02-23T03:30:14;3.70;99.90
23801;DHT22;12081;48.614;10.226;2024-02-23T04:12:23;3.20;99.90
23801;DHT22;12081;48.614;10.226;2024-02-23T04:31:37;3.10;99.90
23801;DHT22;12081;48.614;10.226;2024-02-23T04:53:36;3.00;99.90
23801;DHT22;12081;48.614;10.226;2024-02-23T05:10:05;2.90;99.90
23801;DHT22;12081;48.614;10.226;2024-02-23T05:21:04;2.80;99.90
23801;DHT22;12081;48.614;10.226;2024-02-23T05:32:03;2.90;99.90
23801;DHT22;12081;48.614;10.226;2024-02-23T05:54:04;3.00;99.90
23801;DHT22;12081;48.614;10.226;2024-02-23T05:56:48;4.00;99.90
23801;DHT22;12081;48.614;10.226;2024-02-23T06:05:02;2.80;99.90
23801;DHT22;12081;48.614;10.226;2024-02-23T06:07:47;2.80;99.90
23801;DHT22;12081;48.614;10.226;2024-02-23T06:10:31;4.40;99.90
23801;DHT22;12081;48.614;10.226;2024-02-23T06:13:15;2.70;99.90
23801;DHT22;12081;48.614;10.226;2024-02-23T06:16:00;5.10;99.90
23801;DHT22;12081;48.614;10.226;2024-02-23T06:18:44;2.80;99.90
23801;DHT22;12081;48.614;10.226;2024-02-23T06:21:28;5.60;99.90
23801;DHT22;12081;48.614;10.226;2024-02-23T06:24:15;2.80;99.90
23801;DHT22;12081;48.614;10.226;2024-02-23T06:26:59;2.70;99.90
23801;DHT22;12081;48.614;10.226;2024-02-23T06:29:44;5.60;99.90
23801;DHT22;12081;48.614;10.226;2024-02-23T06:32:35;2.80;99.90
23801;DHT22;12081;48.614;10.226;2024-02-23T06:35:19;2.80;99.90
23801;DHT22;12081;48.614;10.226;2024-02-23T06:38:03;2.80;99.90
23801;DHT22;12081;48.614;10.226;2024-02-23T06:40:47;2.90;99.90
23801;DHT22;12081;48.614;10.226;2024-02-23T06:43:31;2.90;99.90
23801;DHT22;12081;48.614;10.226;2024-02-23T06:46:19;2.90;99.90
23801;DHT22;12081;48.614;10.226;2024-02-23T06:49:03;2.90;99.90
23801;DHT22;12081;48.614;10.226;2024-02-23T06:51:48;2.90;99.90
23801;DHT22;12081;48.614;10.226;2024-02-23T06:54:32;2.90;99.90
23801;DHT22;12081;48.614;10.226;2024-02-23T06:57:16;5.50;99.90
23801;DHT22;12081;48.614;10.226;2024-02-23T07:00:02;3.00;99.90
23801;DHT22;12081;48.614;10.226;2024-02-23T07:02:47;3.00;99.90
23801;DHT22;12081;48.614;10.226;2024-02-23T07:05:31;6.30;99.90
23801;DHT22;12081;48.614;10.226;2024-02-23T07:08:16;6.10;99.90
23801;DHT22;12081;48.614;10.226;2024-02-23T07:11:00;2.90;99.90
23801;DHT22;12081;48.614;10.226;2024-02-23T07:13:44;3.70;99.90
23801;DHT22;12081;48.614;10.226;2024-02-23T07:16:28;3.40;99.90
23801;DHT22;12081;48.614;10.226;2024-02-23T07:19:12;3.30;99.90
23801;DHT22;12081;48.614;10.226;2024-02-23T07:21:56;3.30;99.90
23801;DHT22;12081;48.614;10.226;2024-02-23T07:24:41;3.30;99.90
23801;DHT22;12081;48.614;10.226;2024-02-23T07:27:26;3.40;99.90
23801;DHT22;12081;48.614;10.226;2024-02-23T07:30:11;3.40;99.90
23801;DHT22;12081;48.614;10.226;2024-02-23T07:32:55;3.50;99.90
23801;DHT22;12081;48.614;10.226;2024-02-23T07:35:39;3.60;99.90
23801;DHT22;12081;48.614;10.226;2024-02-23T07:38:23;3.50;99.90
23801;DHT22;12081;48.614;10.226;2024-02-23T07:41:07;3.60;99.90
23801;DHT22;12081;48.614;10.226;2024-02-23T07:43:51;4.00;99.90
23801;DHT22;12081;48.614;10.226;2024-02-23T07:46:35;3.70;99.90
23801;DHT22;12081;48.614;10.226;2024-02-23T07:49:21;3.70;99.90
23801;DHT22;12081;48.614;10.226;2024-02-23T07:52:06;3.70;99.90
23801;DHT22;12081;48.614;10.226;2024-02-23T07:54:52;3.80;99.90
23801;DHT22;12081;48.614;10.226;2024-02-23T07:57:37;3.80;99.90
23801;DHT22;12081;48.614;10.226;2024-02-23T08:00:23;3.90;99.90
23801;DHT22;12081;48.614;10.226;2024-02-23T08:03:08;3.70;99.90
23801;DHT22;12081;48.614;10.226;2024-02-23T08:05:52;4.00;99.90
23801;DHT22;12081;48.614;10.226;2024-02-23T08:08:36;4.00;99.90
23801;DHT22;12081;48.614;10.226;2024-02-23T08:11:21;3.80;99.90
23801;DHT22;12081;48.614;10.226;2024-02-23T08:14:05;4.00;99.90
23801;DHT22;12081;48.614;10.226;2024-02-23T08:16:49;3.90;99.90
23801;DHT22;12081;48.614;10.226;2024-02-23T08:19:34;4.20;99.90
23801;DHT22;12081;48.614;10.226;2024-02-23T08:22:18;3.90;99.90
23801;DHT22;12081;48.614;10.226;2024-02-23T08:25:02;3.70;99.90
23801;DHT22;12081;48.614;10.226;2024-02-23T08:30:32;3.90;99.90
23801;DHT22;12081;48.614;10.226;2024-02-23T08:33:17;3.80;99.90
23801;DHT22;12081;48.614;10.226;2024-02-23T08:36:01;3.80;99.90
23801;DHT22;12081;48.614;10.226;2024-02-23T08:38:45;4.00;99.90
23801;DHT22;12081;48.614;10.226;2024-02-23T08:41:29;3.90;99.90
23801;DHT22;12081;48.614;10.226;2024-02-23T08:44:13;4.00;99.90
23801;DHT22;12081;48.614;10.226;2024-02-23T08:46:58;3.80;99.90
23801;DHT22;12081;48.614;10.226;2024-02-23T08:49:42;3.90;99.90
23801;DHT22;12081;48.614;10.226;2024-02-23T08:52:26;4.00;99.90
23801;DHT22;12081;48.614;10.226;2024-02-23T08:55:10;4.10;99.90
23801;DHT22;12081;48.614;10.226;2024-02-23T08:57:55;3.90;99.90
23801;DHT22;12081;48.614;10.226;2024-02-23T09:03:24;3.90;99.90
23801;DHT22;12081;48.614;10.226;2024-02-23T09:06:08;4.00;99.90
23801;DHT22;12081;48.614;10.226;2024-02-23T09:08:52;4.20;99.90
23801;DHT22;12081;48.614;10.226;2024-02-23T09:11:36;4.10;99.90
23801;DHT22;12081;48.614;10.226;2024-02-23T09:14:21;4.30;99.90
23801;DHT22;12081;48.614;10.226;2024-02-23T09:17:05;4.20;99.90
23801;DHT22;12081;48.614;10.226;2024-02-23T09:19:52;4.20;99.90
23801;DHT22;12081;48.614;10.226;2024-02-23T09:22:36;4.40;99.90
23801;DHT22;12081;48.614;10.226;2024-02-23T09:25:20;4.30;99.90
23801;DHT22;12081;48.614;10.226;2024-02-23T09:28:05;4.30;99.90
23801;DHT22;12081;48.614;10.226;2024-02-23T09:30:49;4.30;99.90
23801;DHT22;12081;48.614;10.226;2024-02-23T09:33:33;4.40;99.90
23801;DHT22;12081;48.614;10.226;2024-02-23T09:36:18;4.40;99.90
23801;DHT22;12081;48.614;10.226;2024-02-23T09:39:02;4.50;99.90
23801;DHT22;12081;48.614;10.226;2024-02-23T09:41:52;4.50;99.90
23801;DHT22;12081;48.614;10.226;2024-02-23T09:44:38;4.60;99.90
23801;DHT22;12081;48.614;10.226;2024-02-23T09:47:24;4.50;99.90
23801;DHT22;12081;48.614;10.226;2024-02-23T09:50:10;4.40;99.90
23801;DHT22;12081;48.614;10.226;2024-02-23T09:52:56;4.40;99.90
23801;DHT22;12081;48.614;10.226;2024-02-23T09:55:43;4.40;99.90
23801;DHT22;12081;48.614;10.226;2024-02-23T09:58:28;4.40;99.90
23801;DHT22;12081;48.614;10.226;2024-02-23T10:01:17;4.50;99.90
23801;DHT22;12081;48.614;10.226;2024-02-23T10:04:06;6.20;99.90
23801;DHT22;12081;48.614;10.226;2024-02-23T10:06:50;4.50;99.90
23801;DHT22;12081;48.614;10.226;2024-02-23T10:09:35;4.70;99.90
23801;DHT22;12081;48.614;10.226;2024-02-23T10:12:19;4.60;99.90
23801;DHT22;12081;48.614;10.226;2024-02-23T10:15:04;4.60;99.90
23801;DHT22;12081;48.614;10.226;2024-02-23T10:17:48;4.70;99.90
23801;DHT22;12081;48.614;10.226;2024-02-23T10:20:32;4.80;99.90
23801;DHT22;12081;48.614;10.226;2024-02-23T10:23:17;4.90;99.90
23801;DHT22;12081;48.614;10.226;2024-02-23T10:26:05;4.90;99.90
23801;DHT22;12081;48.614;10.226;2024-02-23T10:28:50;4.90;99.90
23801;DHT22;12081;48.614;10.226;2024-02-23T10:31:35;4.90;99.90
23801;DHT22;12081;48.614;10.226;2024-02-23T10:34:27;4.90;99.90
23801;DHT22;12081;48.614;10.226;2024-02-23T10:37:13;4.90;99.90
23801;DHT22;12081;48.614;10.226;2024-02-23T10:39:58;4.90;99.90
23801;DHT22;12081;48.614;10.226;2024-02-23T10:42:45;5.00;99.90
23801;DHT22;12081;48.614;10.226;2024-02-23T10:45:32;5.10;99.90
23801;DHT22;12081;48.614;10.226;2024-02-23T10:48:17;5.20;99.90
23801;DHT22;12081;48.614;10.226;2024-02-23T10:51:03;5.10;99.90
23801;DHT22;12081;48.614;10.226;2024-02-23T10:53:49;5.20;99.90
23801;DHT22;12081;48.614;10.226;2024-02-23T10:56:34;5.20;99.90
23801;DHT22;12081;48.614;10.226;2024-02-23T10:59:18;5.20;99.90
23801;DHT22;12081;48.614;10.226;2024-02-23T11:02:04;5.30;99.90
23801;DHT22;12081;48.614;10.226;2024-02-23T11:04:50;5.30;99.90
23801;DHT22;12081;48.614;10.226;2024-02-23T11:07:38;5.30;99.90
23801;DHT22;12081;48.614;10.226;2024-02-23T11:10:22;5.30;99.90
23801;DHT22;12081;48.614;10.226;2024-02-23T11:13:13;5.30;99.90
23801;DHT22;12081;48.614;10.226;2024-02-23T11:16:02;5.30;99.90
23801;DHT22;12081;48.614;10.226;2024-02-23T11:18:47;5.20;99.90
23801;DHT22;12081;48.614;10.226;2024-02-23T11:21:35;5.20;99.90
23801;DHT22;12081;48.614;10.226;2024-02-23T11:24:25;5.30;99.90
23801;DHT22;12081;48.614;10.226;2024-02-23T11:27:15;5.30;99.90
23801;DHT22;12081;48.614;10.226;2024-02-23T11:30:06;5.40;99.90
23801;DHT22;12081;48.614;10.226;2024-02-23T11:32:59;5.40;99.90
23801;DHT22;12081;48.614;10.226;2024-02-23T11:35:46;5.40;99.90
23801;DHT22;12081;48.614;10.226;2024-02-23T11:38:33;5.40;99.90
23801;DHT22;12081;48.614;10.226;2024-02-23T11:41:18;7.50;99.90
23801;DHT22;12081;48.614;10.226;2024-02-23T11:44:03;5.40;99.90
23801;DHT22;12081;48.614;10.226;2024-02-23T11:46:47;5.50;99.90
23801;DHT22;12081;48.614;10.226;2024-02-23T11:49:31;5.50;99.90
23801;DHT22;12081;48.614;10.226;2024-02-23T11:52:15;5.40;99.90
23801;DHT22;12081;48.614;10.226;2024-02-23T11:55:00;5.30;99.90
23801;DHT22;12081;48.614;10.226;2024-02-23T11:57:45;5.30;99.90
23801;DHT22;12081;48.614;10.226;2024-02-23T12:00:29;5.30;99.90
23801;DHT22;12081;48.614;10.226;2024-02-23T12:03:14;5.30;99.90
23801;DHT22;12081;48.614;10.226;2024-02-23T12:06:02;5.20;99.90
23801;DHT22;12081;48.614;10.226;2024-02-23T12:08:46;5.20;99.90
23801;DHT22;12081;48.614;10.226;2024-02-23T12:11:31;5.20;99.90
23801;DHT22;12081;48.614;10.226;2024-02-23T12:14:15;5.20;99.90
23801;DHT22;12081;48.614;10.226;2024-02-23T12:17:02;5.10;99.90
23801;DHT22;12081;48.614;10.226;2024-02-23T12:19:47;5.20;99.90
23801;DHT22;12081;48.614;10.226;2024-02-23T12:22:34;5.20;99.90
23801;DHT22;12081;48.614;10.226;2024-02-23T12:25:19;5.20;99.90
23801;DHT22;12081;48.614;10.226;2024-02-23T12:28:03;5.20;99.90
23801;DHT22;12081;48.614;10.226;2024-02-23T12:31:00;5.20;99.90
23801;DHT22;12081;48.614;10.226;2024-02-23T12:33:46;5.30;99.90
23801;DHT22;12081;48.614;10.226;2024-02-23T12:36:31;5.20;99.90
23801;DHT22;12081;48.614;10.226;2024-02-23T12:39:19;5.30;99.90
23801;DHT22;12081;48.614;10.226;2024-02-23T12:42:03;5.30;99.90
23801;DHT22;12081;48.614;10.226;2024-02-23T12:44:48;5.30;99.90
23801;DHT22;12081;48.614;10.226;2024-02-23T12:47:32;5.30;99.90
23801;DHT22;12081;48.614;10.226;2024-02-23T12:50:16;5.30;99.90
23801;DHT22;12081;48.614;10.226;2024-02-23T12:53:00;5.30;99.90
23801;DHT22;12081;48.614;10.226;2024-02-23T12:55:45;5.30;99.90
23801;DHT22;12081;48.614;10.226;2024-02-23T12:58:29;5.20;99.90
23801;DHT22;12081;48.614;10.226;2024-02-23T13:01:13;5.40;99.90
23801;DHT22;12081;48.614;10.226;2024-02-23T13:03:58;5.20;99.90
23801;DHT22;12081;48.614;10.226;2024-02-23T13:06:42;5.40;99.90
23801;DHT22;12081;48.614;10.226;2024-02-23T13:09:27;5.40;99.90
23801;DHT22;12081;48.614;10.226;2024-02-23T13:12:11;5.40;99.90
23801;DHT22;12081;48.614;10.226;2024-02-23T13:14:55;5.40;99.90
23801;DHT22;12081;48.614;10.226;2024-02-23T13:17:39;5.40;99.90
23801;DHT22;12081;48.614;10.226;2024-02-23T13:20:24;5.50;99.90
23801;DHT22;12081;48.614;10.226;2024-02-23T13:23:09;5.50;99.90
23801;DHT22;12081;48.614;10.226;2024-02-23T13:25:53;5.50;99.90
23801;DHT22;12081;48.614;10.226;2024-02-23T13:28:37;5.60;99.90
23801;DHT22;12081;48.614;10.226;2024-02-23T13:31:22;5.70;99.90
23801;DHT22;12081;48.614;10.226;2024-02-23T13:34:06;6.90;99.90
23801;DHT22;12081;48.614;10.226;2024-02-23T13:36:50;5.90;99.90
23801;DHT22;12081;48.614;10.226;2024-02-23T13:39:36;6.00;99.90
23801;DHT22;12081;48.614;10.226;2024-02-23T13:42:20;6.00;99.90
23801;DHT22;12081;48.614;10.226;2024-02-23T13:45:08;6.00;99.90
23801;DHT22;12081;48.614;10.226;2024-02-23T13:48:00;6.00;99.90
23801;DHT22;12081;48.614;10.226;2024-02-23T13:50:48;6.00;99.90
23801;DHT22;12081;48.614;10.226;2024-02-23T13:53:32;6.10;99.90
23801;DHT22;12081;48.614;10.226;2024-02-23T13:56:17;6.40;99.90
23801;DHT22;12081;48.614;10.226;2024-02-23T13:59:01;6.60;99.90
23801;DHT22;12081;48.614;10.226;2024-02-23T14:01:45;6.80;99.90
23801;DHT22;12081;48.614;10.226;2024-02-23T14:04:29;6.80;99.90
23801;DHT22;12081;48.614;10.226;2024-02-23T14:07:14;6.80;99.90
23801;DHT22;12081;48.614;10.226;2024-02-23T14:09:58;6.70;99.90
23801;DHT22;12081;48.614;10.226;2024-02-23T14:12:43;8.30;99.90
23801;DHT22;12081;48.614;10.226;2024-02-23T14:15:27;6.60;99.90
23801;DHT22;12081;48.614;10.226;2024-02-23T14:18:11;6.50;99.90
23801;DHT22;12081;48.614;10.226;2024-02-23T14:20:55;6.50;99.90
23801;DHT22;12081;48.614;10.226;2024-02-23T14:23:39;6.40;99.90
23801;DHT22;12081;48.614;10.226;2024-02-23T14:26:23;6.30;99.90
23801;DHT22;12081;48.614;10.226;2024-02-23T14:29:07;6.20;99.90
23801;DHT22;12081;48.614;10.226;2024-02-23T14:31:52;6.20;99.90
23801;DHT22;12081;48.614;10.226;2024-02-23T14:34:37;6.30;99.90
23801;DHT22;12081;48.614;10.226;2024-02-23T14:37:21;6.40;99.90
23801;DHT22;12081;48.614;10.226;2024-02-23T14:40:05;7.70;99.90
23801;DHT22;12081;48.614;10.226;2024-02-23T14:42:50;6.50;99.90
23801;DHT22;12081;48.614;10.226;2024-02-23T14:45:34;6.40;99.90
23801;DHT22;12081;48.614;10.226;2024-02-23T14:48:18;6.40;99.90
23801;DHT22;12081;48.614;10.226;2024-02-23T14:51:02;6.50;99.90
23801;DHT22;12081;48.614;10.226;2024-02-23T14:53:48;6.50;99.90
23801;DHT22;12081;48.614;10.226;2024-02-23T14:56:32;6.40;99.90
23801;DHT22;12081;48.614;10.226;2024-02-23T14:59:17;6.30;99.90
23801;DHT22;12081;48.614;10.226;2024-02-23T15:02:02;6.30;99.90
23801;DHT22;12081;48.614;10.226;2024-02-23T15:04:46;6.30;99.90
23801;DHT22;12081;48.614;10.226;2024-02-23T15:07:30;6.20;99.90
23801;DHT22;12081;48.614;10.226;2024-02-23T15:10:14;6.20;99.90
23801;DHT22;12081;48.614;10.226;2024-02-23T15:12:58;6.10;99.90
23801;DHT22;12081;48.614;10.226;2024-02-23T15:15:43;6.10;99.90
23801;DHT22;12081;48.614;10.226;2024-02-23T15:18:27;6.80;99.90
23801;DHT22;12081;48.614;10.226;2024-02-23T15:21:11;6.10;99.90
23801;DHT22;12081;48.614;10.226;2024-02-23T15:23:55;6.10;99.90
23801;DHT22;12081;48.614;10.226;2024-02-23T15:26:40;6.00;99.90
23801;DHT22;12081;48.614;10.226;2024-02-23T15:29:24;6.00;99.90
23801;DHT22;12081;48.614;10.226;2024-02-23T15:32:09;5.90;99.90
23801;DHT22;12081;48.614;10.226;2024-02-23T15:34:57;5.90;99.90
23801;DHT22;12081;48.614;10.226;2024-02-23T15:41:25;5.80;99.90
23801;DHT22;12081;48.614;10.226;2024-02-23T15:44:09;7.20;99.90
23801;DHT22;12081;48.614;10.226;2024-02-23T15:46:54;5.60;99.90
23801;DHT22;12081;48.614;10.226;2024-02-23T15:49:39;5.70;99.90
23801;DHT22;12081;48.614;10.226;2024-02-23T15:52:24;5.50;99.90
23801;DHT22;12081;48.614;10.226;2024-02-23T15:55:09;5.50;99.90
23801;DHT22;12081;48.614;10.226;2024-02-23T15:57:56;5.30;99.90
23801;DHT22;12081;48.614;10.226;2024-02-23T16:00:41;5.30;99.90
23801;DHT22;12081;48.614;10.226;2024-02-23T16:03:28;6.90;99.90
23801;DHT22;12081;48.614;10.226;2024-02-23T16:06:13;5.10;99.90
23801;DHT22;12081;48.614;10.226;2024-02-23T16:08:58;6.40;99.90
23801;DHT22;12081;48.614;10.226;2024-02-23T16:11:46;5.20;99.90
23801;DHT22;12081;48.614;10.226;2024-02-23T16:14:31;6.10;99.90
23801;DHT22;12081;48.614;10.226;2024-02-23T16:17:16;4.90;99.90
23801;DHT22;12081;48.614;10.226;2024-02-23T16:20:01;4.80;99.90
23801;DHT22;12081;48.614;10.226;2024-02-23T16:22:45;4.80;99.90
23801;DHT22;12081;48.614;10.226;2024-02-23T16:25:30;4.80;99.90
23801;DHT22;12081;48.614;10.226;2024-02-23T16:28:16;4.70;99.90
23801;DHT22;12081;48.614;10.226;2024-02-23T16:31:00;4.70;99.90
23801;DHT22;12081;48.614;10.226;2024-02-23T16:33:45;4.60;99.90
23801;DHT22;12081;48.614;10.226;2024-02-23T16:36:30;4.70;99.90
23801;DHT22;12081;48.614;10.226;2024-02-23T16:39:14;5.60;99.90
23801;DHT22;12081;48.614;10.226;2024-02-23T16:41:59;4.60;99.90
23801;DHT22;12081;48.614;10.226;2024-02-23T16:44:44;4.80;99.90
23801;DHT22;12081;48.614;10.226;2024-02-23T16:47:29;4.50;99.90
23801;DHT22;12081;48.614;10.226;2024-02-23T16:50:14;4.40;99.90
23801;DHT22;12081;48.614;10.226;2024-02-23T16:52:58;4.30;99.90
23801;DHT22;12081;48.614;10.226;2024-02-23T16:55:43;4.50;99.90
23801;DHT22;12081;48.614;10.226;2024-02-23T20:47:54;0.90;99.90
23801;DHT22;12081;48.614;10.226;2024-02-23T20:50:38;1.00;99.90
23801;DHT22;12081;48.614;10.226;2024-02-23T20:53:22;0.80;99.90
23801;DHT22;12081;48.614;10.226;2024-02-23T20:58:53;0.30;99.90
23801;DHT22;12081;48.614;10.226;2024-02-23T21:01:37;0.40;99.90
23801;DHT22;12081;48.614;10.226;2024-02-23T21:04:21;0.40;99.90
23801;DHT22;12081;48.614;10.226;2024-02-23T21:07:05;0.20;99.90
23801;DHT22;12081;48.614;10.226;2024-02-23T21:09:50;0.20;99.90
23801;DHT22;12081;48.614;10.226;2024-02-23T21:12:34;0.10;99.90
23801;DHT22;12081;48.614;10.226;2024-02-23T21:15:18;-0.10;99.90
23801;DHT22;12081;48.614;10.226;2024-02-23T21:18:02;-0.20;99.90
23801;DHT22;12081;48.614;10.226;2024-02-23T21:20:47;-0.20;99.90
23801;DHT22;12081;48.614;10.226;2024-02-23T21:23:34;-0.30;99.90
23801;DHT22;12081;48.614;10.226;2024-02-23T21:26:18;-0.30;99.90
23801;DHT22;12081;48.614;10.226;2024-02-23T21:29:02;-0.20;99.90
23801;DHT22;12081;48.614;10.226;2024-02-23T21:31:46;-0.50;99.90
23801;DHT22;12081;48.614;10.226;2024-02-23T21:34:30;-0.50;99.90
23801;DHT22;12081;48.614;10.226;2024-02-23T21:37:14;-0.50;99.90
23801;DHT22;12081;48.614;10.226;2024-02-23T21:40:01;-0.80;99.90
23801;DHT22;12081;48.614;10.226;2024-02-23T21:42:45;-0.60;99.90
23801;DHT22;12081;48.614;10.226;2024-02-23T21:45:29;-0.60;99.90
23801;DHT22;12081;48.614;10.226;2024-02-23T21:48:13;-0.50;99.90
23801;DHT22;12081;48.614;10.226;2024-02-23T21:50:57;-0.50;99.90
23801;DHT22;12081;48.614;10.226;2024-02-23T21:53:41;-0.50;99.90
23801;DHT22;12081;48.614;10.226;2024-02-23T21:56:25;-0.30;99.90
23801;DHT22;12081;48.614;10.226;2024-02-23T21:59:09;-0.30;99.90
23801;DHT22;12081;48.614;10.226;2024-02-23T22:01:53;-0.50;99.90
23801;DHT22;12081;48.614;10.226;2024-02-23T22:07:24;-0.30;99.90
23801;DHT22;12081;48.614;10.226;2024-02-23T22:10:08;-0.40;99.90
23801;DHT22;12081;48.614;10.226;2024-02-23T22:12:54;-0.40;99.90
23801;DHT22;12081;48.614;10.226;2024-02-23T22:15:38;-0.60;99.90
23801;DHT22;12081;48.614;10.226;2024-02-23T22:18:22;-0.70;99.90
23801;DHT22;12081;48.614;10.226;2024-02-23T22:23:50;-0.70;99.90
23801;DHT22;12081;48.614;10.226;2024-02-23T22:26:35;-0.90;99.90
23801;DHT22;12081;48.614;10.226;2024-02-23T22:29:21;-1.20;99.90
23801;DHT22;12081;48.614;10.226;2024-02-23T22:32:05;-0.90;99.90
23801;DHT22;12081;48.614;10.226;2024-02-23T22:34:50;-0.80;99.90
23801;DHT22;12081;48.614;10.226;2024-02-23T22:37:34;-0.80;99.90
23801;DHT22;12081;48.614;10.226;2024-02-23T22:40:19;-1.00;99.90
23801;DHT22;12081;48.614;10.226;2024-02-23T22:48:32;-1.00;99.90
23801;DHT22;12081;48.614;10.226;2024-02-23T22:54:01;-1.20;99.90
23801;DHT22;12081;48.614;10.226;2024-02-23T22:56:45;-1.00;99.90
23801;DHT22;12081;48.614;10.226;2024-02-23T22:59:29;-1.10;99.90
23801;DHT22;12081;48.614;10.226;2024-02-23T23:02:13;-1.20;99.90
23801;DHT22;12081;48.614;10.226;2024-02-23T23:04:57;-1.10;99.90
23801;DHT22;12081;48.614;10.226;2024-02-23T23:07:41;-1.10;99.90
23801;DHT22;12081;48.614;10.226;2024-02-23T23:13:09;-1.30;99.90
23801;DHT22;12081;48.614;10.226;2024-02-23T23:15:53;-1.20;99.90
23801;DHT22;12081;48.614;10.226;2024-02-23T23:18:38;-1.20;99.90
23801;DHT22;12081;48.614;10.226;2024-02-23T23:21:22;-1.40;99.90
23801;DHT22;12081;48.614;10.226;2024-02-23T23:24:07;-1.70;99.90
23801;DHT22;12081;48.614;10.226;2024-02-23T23:26:51;-1.50;99.90
23801;DHT22;12081;48.614;10.226;2024-02-23T23:29:36;-1.70;99.90
23801;DHT22;12081;48.614;10.226;2024-02-23T23:35:04;-1.70;99.90
23801;DHT22;12081;48.614;10.226;2024-02-23T23:37:48;-1.80;99.90
23801;DHT22;12081;48.614;10.226;2024-02-23T23:43:17;-1.60;99.90
23801;DHT22;12081;48.614;10.226;2024-02-23T23:46:01;-1.80;99.90
23801;DHT22;12081;48.614;10.226;2024-02-23T23:51:30;-1.70;99.90
23801;DHT22;12081;48.614;10.226;2024-02-23T23:54:14;-2.10;99.90
23801;DHT22;12081;48.614;10.226;2024-02-23T23:56:59;-1.90;99.90
23801;DHT22;12081;48.614;10.226;2024-02-23T23:59:43;-1.90;99.90
